Terminal Aerodrome Forecast
Issued by NWS Memphis, TN

Home | Current Version | Previous Version | Text Only | Print | Product List | Glossary On
Versions: 1 2 3 4 5 6 7 8 9 10 11 12
000
FTUS44 KMEG 291130
TAFJBR
TAF
KJBR 291130Z 2912/3012 18008KT P6SM SKC
     FM291400 19012KT P6SM BKN025
     FM291700 19015G25KT P6SM BKN040
     FM300100 17008KT P6SM SCT025
     FM300600 18007KT P6SM BKN015
      TEMPO 3009/3012 OVC008=

USA.gov is the U.S. government's official web portal to all federal, state and local government web resources and services.